Juanjui Airport
SPJI : rendu visible

Aérodrome :











RETROUVEZ-NOUS SUR...

 
LOGIN :

S'inscrire | Disclaimer

   EN    FR    IT 

 









Légende :    VFR   VFR Marginal   IFR   IFR Intensif   IFR Très Intensif
Visi : 
Plafond : 
>= 8 km
>= 3000ft
5 à 8 km
1000 à 3000 ft
1500m à 5 km
500 à 1000 ft
800 à 1500m
200 à 500 ft
< 800m
< 200 ft
Symboles :   Orages  Brouillard  Fortes neiges  Fortes précipitations  Vent > 20 kt






- Altitude de l'aérodrome : 1148 ft
- Code IATA : JJI


SPJI - Juanjui

DERNIER METAR :
  • 231600Z 12003KT 9999 SCT020 BKN080 30/26 Q1022 RMK PP000

METARs EXPIRÉS :
  • 231500Z 13003KT 9999 SCT018 BKN080 29/25 Q1022 RMK PP000
  • 231400Z 00000KT 9999 SCT018 26/23 Q1022 RMK PP000

TAF SPJI
Valide du 23 à 12h jusqu'au 24 à 12h UTC


231100Z 2312/2412 06004KT 9999 SCT020 BKN080 TX33/2319Z TN20/2411Z
TEMPO 2319/2323 4000 RADZ BKN015 BKN080
FIR SPIM / Amérique du Sud



MET'MAP, la Météo Aéronautique d'un coup d'oeil ! - Copyright ORBIFLY Décembre 2007 - Disclaimer

ORBIFLY MET'MAP TEAM :

Programmation & Développement : Alexandra Zaïnal
Sur une idée originale de : Baudouin d'Aumeries
Assistance à la programmation : Marc-Olivier Méhu
Soutien technique & logistique : Manuel Goepfert

Contact : metmap@orbifly.com




SOURCES & CREDITS :

   NOAA       Earth
Advisory